createdAt,value
2023-03-07T00:02:18.425Z,11.75
2023-03-07T00:04:46.278Z,12.75
2023-03-07T00:07:13.693Z,12.80
2023-03-07T00:09:40.105Z,12.82
2023-03-07T00:12:08.173Z,13.95
2023-03-07T00:14:35.439Z,14.65
2023-03-07T00:17:02.155Z,14.88
2023-03-07T00:19:28.610Z,14.50
2023-03-07T00:21:55.020Z,13.85
2023-03-07T00:24:21.512Z,15.23
2023-03-07T00:26:47.963Z,15.18
2023-03-07T00:29:14.357Z,16.15
2023-03-07T00:31:40.893Z,15.30
2023-03-07T00:34:07.345Z,14.38
2023-03-07T00:36:33.740Z,14.27
2023-03-07T00:39:00.149Z,17.35
2023-03-07T00:41:28.227Z,16.23
2023-03-07T00:43:55.385Z,16.83
2023-03-07T00:46:23.883Z,15.73
2023-03-07T00:48:50.636Z,16.92
2023-03-07T00:51:18.916Z,15.00
2023-03-07T00:53:46.000Z,15.52
2023-03-07T00:56:18.313Z,16.08
2023-03-07T00:58:45.491Z,16.60
2023-03-07T01:01:14.388Z,17.75
2023-03-07T01:03:41.996Z,18.35
2023-03-07T01:06:13.057Z,17.30
2023-03-07T01:08:39.695Z,17.40
2023-03-07T01:11:07.068Z,18.38
2023-03-07T01:13:35.237Z,19.10
2023-03-07T01:16:20.413Z,17.98
2023-03-07T01:18:55.885Z,17.23
2023-03-07T01:21:24.021Z,17.17
2023-03-07T01:23:51.481Z,17.52
2023-03-07T01:26:20.588Z,16.90
2023-03-07T01:28:47.774Z,18.60
2023-03-07T01:31:14.292Z,18.02
2023-03-07T01:33:41.304Z,19.05
2023-03-07T01:36:20.830Z,18.25
2023-03-07T01:38:48.564Z,19.85
2023-03-07T01:41:16.159Z,21.00
2023-03-07T01:43:43.415Z,19.83
2023-03-07T01:46:17.676Z,21.17
2023-03-07T01:48:52.216Z,21.67
2023-03-07T01:51:19.712Z,22.13
2023-03-07T01:53:50.673Z,22.42
2023-03-07T01:56:17.548Z,24.30
2023-03-07T01:58:44.127Z,21.63
2023-03-07T02:01:13.910Z,23.10
2023-03-07T02:03:53.156Z,24.33
2023-03-07T02:06:20.522Z,24.02
2023-03-07T02:08:49.599Z,24.08
2023-03-07T02:11:16.992Z,26.60
2023-03-07T02:13:43.532Z,24.40
2023-03-07T02:16:12.047Z,25.85
2023-03-07T02:18:43.872Z,25.42
2023-03-07T02:21:30.746Z,27.25
2023-03-07T02:24:09.804Z,26.67
2023-03-07T02:26:47.317Z,27.27
2023-03-07T02:29:14.783Z,29.98
2023-03-07T02:31:44.785Z,25.57
2023-03-07T02:34:25.925Z,27.60
2023-03-07T02:37:14.774Z,31.27
2023-03-07T02:39:43.725Z,29.45
2023-03-07T02:42:16.128Z,30.45
2023-03-07T02:44:56.121Z,29.38
2023-03-07T02:47:22.849Z,31.40
2023-03-07T02:49:49.493Z,29.17
2023-03-07T02:52:16.078Z,30.38
2023-03-07T02:54:42.510Z,32.72
2023-03-07T02:57:10.540Z,29.88
2023-03-07T02:59:37.259Z,32.22
2023-03-07T03:02:03.749Z,30.30
2023-03-07T03:04:30.190Z,31.25
2023-03-07T03:06:56.677Z,30.98
2023-03-07T03:09:23.157Z,30.77
2023-03-07T03:11:49.540Z,31.73
2023-03-07T03:14:18.832Z,30.40
2023-03-07T03:16:45.274Z,30.85
2023-03-07T03:19:12.035Z,32.38
2023-03-07T03:21:38.850Z,30.63
2023-03-07T03:24:06.847Z,31.98
2023-03-07T03:26:34.877Z,31.52
2023-03-07T03:29:02.922Z,32.15
2023-03-07T03:31:30.368Z,29.73
2023-03-07T03:33:58.273Z,29.33
2023-03-07T03:36:26.994Z,31.98
2023-03-07T03:38:59.669Z,31.17
2023-03-07T03:41:26.796Z,30.55
2023-03-07T03:43:54.043Z,28.92
2023-03-07T03:46:21.088Z,29.58
2023-03-07T03:48:53.330Z,30.85
2023-03-07T03:51:22.277Z,30.08
2023-03-07T03:53:49.297Z,28.65
2023-03-07T03:56:18.024Z,30.75
2023-03-07T03:58:47.461Z,28.58
2023-03-07T04:01:14.091Z,28.38
2023-03-07T04:03:43.385Z,29.02
2023-03-07T04:06:12.983Z,28.67
2023-03-07T04:08:40.909Z,28.23
2023-03-07T04:11:07.364Z,27.88
2023-03-07T04:13:35.207Z,27.73
2023-03-07T04:16:02.397Z,28.33
2023-03-07T04:18:29.002Z,28.80
2023-03-07T04:20:55.724Z,27.02
2023-03-07T04:23:24.152Z,29.20
2023-03-07T04:25:55.525Z,30.15
2023-03-07T04:28:24.894Z,28.95
2023-03-07T04:30:53.099Z,29.85
2023-03-07T04:33:20.617Z,29.23
2023-03-07T04:35:48.392Z,26.80
2023-03-07T04:38:15.753Z,28.58
2023-03-07T04:40:42.259Z,28.90
2023-03-07T04:43:10.210Z,29.55
2023-03-07T04:45:37.220Z,29.63
2023-03-07T04:48:04.604Z,28.08
2023-03-07T04:50:32.247Z,29.40
2023-03-07T04:52:58.719Z,29.38
2023-03-07T04:55:25.288Z,30.88
2023-03-07T04:57:52.037Z,30.88
2023-03-07T05:00:19.982Z,30.63
2023-03-07T05:02:48.615Z,31.40
2023-03-07T05:05:17.352Z,29.55
2023-03-07T05:07:44.354Z,28.75
2023-03-07T05:10:11.910Z,30.42
2023-03-07T05:12:38.426Z,30.00
2023-03-07T05:15:06.524Z,29.88
2023-03-07T05:17:32.941Z,30.55
2023-03-07T05:19:59.369Z,31.20
2023-03-07T05:22:25.841Z,30.67
2023-03-07T05:24:52.267Z,31.92
2023-03-07T05:27:19.013Z,29.95
2023-03-07T05:29:45.478Z,30.40
2023-03-07T05:32:11.922Z,28.40
2023-03-07T05:34:39.357Z,30.25
2023-03-07T05:37:06.106Z,28.70
2023-03-07T05:39:32.677Z,28.17
2023-03-07T05:41:59.239Z,27.42
2023-03-07T05:44:26.422Z,27.83
2023-03-07T05:46:54.598Z,26.08
2023-03-07T05:49:21.169Z,27.83
2023-03-07T05:51:47.624Z,26.77
2023-03-07T05:54:14.060Z,26.75
2023-03-07T05:56:40.530Z,27.08
2023-03-07T05:59:07.800Z,27.17
2023-03-07T06:01:34.665Z,25.98
2023-03-07T06:04:01.200Z,27.73
2023-03-07T06:06:27.645Z,25.80
2023-03-07T06:08:54.116Z,26.38
2023-03-07T06:11:21.078Z,25.17
2023-03-07T06:13:47.649Z,25.65
2023-03-07T06:16:14.126Z,24.55
2023-03-07T06:18:41.620Z,23.58
2023-03-07T06:21:10.227Z,22.58
2023-03-07T06:23:41.720Z,24.80
2023-03-07T06:26:12.558Z,24.30
2023-03-07T06:28:40.851Z,23.88
2023-03-07T06:31:15.996Z,22.80
2023-03-07T06:33:44.262Z,23.20
2023-03-07T06:36:14.119Z,24.48
2023-03-07T06:38:42.698Z,25.98
2023-03-07T06:41:09.340Z,24.25
2023-03-07T06:43:35.793Z,23.83
2023-03-07T06:46:03.545Z,26.25
2023-03-07T06:48:34.866Z,26.15
2023-03-07T06:51:07.539Z,23.42
2023-03-07T06:56:02.095Z,22.63
2023-03-07T06:58:28.660Z,21.92
2023-03-07T07:00:55.576Z,23.17
2023-03-07T07:03:22.344Z,23.90
2023-03-07T07:05:48.813Z,24.02
2023-03-07T07:08:15.221Z,24.25
2023-03-07T07:10:41.914Z,23.83
2023-03-07T07:13:08.630Z,23.08
2023-03-07T07:15:35.329Z,22.40
2023-03-07T07:18:01.769Z,22.10
2023-03-07T07:20:31.692Z,22.05
2023-03-07T07:22:58.081Z,21.42
2023-03-07T07:25:24.540Z,22.58
2023-03-07T07:27:51.073Z,21.40
2023-03-07T07:30:17.791Z,21.48
2023-03-07T07:32:44.945Z,20.48
2023-03-07T07:35:11.808Z,21.23
2023-03-07T07:37:38.330Z,20.85
2023-03-07T07:40:05.192Z,19.33
2023-03-07T07:42:32.396Z,19.77
2023-03-07T07:45:25.151Z,18.95
2023-03-07T07:47:52.332Z,20.40
2023-03-07T07:50:24.100Z,19.80
2023-03-07T07:52:53.135Z,19.73
2023-03-07T07:55:20.061Z,19.83
2023-03-07T07:57:46.803Z,19.17
2023-03-07T08:00:14.153Z,18.23
2023-03-07T08:02:40.667Z,19.40
2023-03-07T08:05:08.128Z,19.80
2023-03-07T08:07:34.514Z,18.55
2023-03-07T08:10:00.929Z,19.10
2023-03-07T08:12:28.074Z,19.90
2023-03-07T08:14:54.516Z,18.98
2023-03-07T08:17:20.923Z,17.77
2023-03-07T08:19:47.358Z,19.75
2023-03-07T08:22:13.956Z,18.95
2023-03-07T08:24:41.213Z,19.05
2023-03-07T08:27:08.067Z,19.65
2023-03-07T08:29:35.279Z,18.45
2023-03-07T08:32:01.847Z,19.25
2023-03-07T08:34:28.245Z,19.88
2023-03-07T08:36:54.644Z,18.38
2023-03-07T08:39:21.035Z,18.48
2023-03-07T08:41:47.427Z,18.83
2023-03-07T08:44:13.817Z,17.65
2023-03-07T08:46:40.375Z,17.00
2023-03-07T08:49:06.805Z,18.15
2023-03-07T08:51:33.215Z,16.48
2023-03-07T08:53:59.673Z,18.15
2023-03-07T08:56:27.225Z,16.95
2023-03-07T08:58:54.543Z,17.67
2023-03-07T09:01:21.070Z,17.88
2023-03-07T09:03:47.580Z,16.45
2023-03-07T09:06:19.186Z,16.80
2023-03-07T09:08:47.273Z,16.95
2023-03-07T09:11:14.150Z,17.77
2023-03-07T09:13:51.456Z,15.43
2023-03-07T09:16:20.846Z,16.90
2023-03-07T09:18:47.368Z,16.52
2023-03-07T09:21:13.792Z,16.63
2023-03-07T09:23:40.224Z,15.30
2023-03-07T09:26:06.754Z,15.82
2023-03-07T09:28:33.297Z,16.98
2023-03-07T09:30:59.789Z,15.23
2023-03-07T09:33:26.172Z,14.63
2023-03-07T09:35:52.587Z,14.88
2023-03-07T09:38:19.026Z,14.43
2023-03-07T09:40:47.739Z,15.13
2023-03-07T09:43:20.601Z,13.18
2023-03-07T09:46:46.710Z,13.82
2023-03-07T09:49:23.410Z,11.77
2023-03-07T09:51:53.944Z,12.85
2023-03-07T09:54:24.926Z,11.38
2023-03-07T09:56:57.825Z,11.45
2023-03-07T09:59:38.974Z,11.02
2023-03-07T10:02:23.342Z,9.75
2023-03-07T10:05:42.984Z,10.95
2023-03-07T10:08:15.466Z,10.68
2023-03-07T10:10:47.626Z,11.00
2023-03-07T10:13:37.838Z,9.45
2023-03-07T10:16:24.562Z,10.68
2023-03-07T10:19:23.670Z,9.60
2023-03-07T10:22:12.359Z,9.27
2023-03-07T10:24:45.378Z,10.27
2023-03-07T10:27:13.142Z,9.93
2023-03-07T10:29:51.166Z,9.20
2023-03-07T10:32:37.630Z,10.25
2023-03-07T10:35:16.777Z,9.07
2023-03-07T10:37:58.532Z,9.93
2023-03-07T10:40:41.687Z,7.05
2023-03-07T10:43:20.902Z,8.52
2023-03-07T10:45:47.332Z,8.18
2023-03-07T10:48:18.802Z,7.90
2023-03-07T10:50:53.429Z,7.72
2023-03-07T10:53:25.316Z,8.68
2023-03-07T10:55:52.439Z,7.05
2023-03-07T10:58:23.388Z,6.90
2023-03-07T11:01:10.989Z,5.57
2023-03-07T11:03:55.404Z,5.55
2023-03-07T11:06:39.963Z,5.25
2023-03-07T11:09:33.895Z,5.50
2023-03-07T11:12:10.629Z,5.45
2023-03-07T11:14:54.414Z,4.95
2023-03-07T11:17:39.067Z,4.38
2023-03-07T11:20:25.474Z,4.20
2023-03-07T11:23:18.290Z,3.75
2023-03-07T11:25:44.963Z,4.10
2023-03-07T11:28:33.298Z,4.70
2023-03-07T11:31:28.994Z,3.63
2023-03-07T11:34:36.652Z,2.85
2023-03-07T11:37:38.119Z,2.90
2023-03-07T11:43:06.757Z,2.55
2023-03-07T11:46:05.920Z,2.30
2023-03-07T11:48:51.411Z,1.77
2023-03-07T11:51:36.035Z,1.70
2023-03-07T11:54:32.663Z,2.38
2023-03-07T11:57:18.983Z,1.60
2023-03-07T12:00:03.612Z,1.70
2023-03-07T12:03:12.921Z,1.67
2023-03-07T12:05:54.292Z,1.90
2023-03-07T12:09:02.203Z,2.40
2023-03-07T12:11:47.581Z,2.30
2023-03-07T12:14:28.986Z,2.42
2023-03-07T12:17:27.805Z,1.95
2023-03-07T12:20:15.044Z,1.70
2023-03-07T12:23:02.871Z,2.00
2023-03-07T12:25:46.303Z,1.48
2023-03-07T12:28:18.823Z,1.70
2023-03-07T12:31:08.777Z,2.22
2023-03-07T12:33:51.548Z,1.60
2023-03-07T12:36:27.827Z,1.60
2023-03-07T12:39:20.095Z,1.70
2023-03-07T12:42:06.633Z,2.05
2023-03-07T12:44:40.100Z,1.90
2023-03-07T12:47:25.410Z,1.67
2023-03-07T12:50:00.105Z,1.92
2023-03-07T12:52:44.769Z,1.67
2023-03-07T12:55:22.830Z,2.05
2023-03-07T12:57:57.773Z,2.55
2023-03-07T13:00:25.610Z,2.10
2023-03-07T13:03:04.246Z,2.15
2023-03-07T13:05:33.339Z,2.20
2023-03-07T13:07:59.942Z,2.40
2023-03-07T13:10:26.938Z,2.70
2023-03-07T13:12:53.514Z,2.22
2023-03-07T13:15:20.910Z,2.45
2023-03-07T13:17:47.245Z,2.92
2023-03-07T13:20:19.360Z,2.60
2023-03-07T13:22:45.703Z,2.80
2023-03-07T13:25:21.187Z,2.78
2023-03-07T13:27:52.636Z,2.75
2023-03-07T13:30:32.719Z,3.40
2023-03-07T13:33:27.561Z,2.97
2023-03-07T13:35:56.779Z,2.80
2023-03-07T13:38:46.490Z,2.80
2023-03-07T13:41:33.726Z,3.67
2023-03-07T13:44:01.988Z,3.75
2023-03-07T13:46:43.714Z,4.10
2023-03-07T13:49:10.131Z,4.55
2023-03-07T13:51:36.531Z,4.07
2023-03-07T13:54:05.538Z,3.53
2023-03-07T13:56:42.318Z,3.15
2023-03-07T13:59:21.541Z,4.75
2023-03-07T14:01:54.605Z,3.63
2023-03-07T14:04:38.971Z,3.60
2023-03-07T14:07:21.490Z,3.90
2023-03-07T14:09:57.094Z,3.03
2023-03-07T14:12:40.438Z,3.38
2023-03-07T14:15:14.815Z,3.08
2023-03-07T14:17:54.801Z,3.38
2023-03-07T14:20:21.233Z,3.40
2023-03-07T14:23:02.191Z,3.42
2023-03-07T14:25:42.979Z,3.95
2023-03-07T14:28:26.776Z,3.40
2023-03-07T14:30:58.773Z,2.65
2023-03-07T14:33:38.159Z,3.17
2023-03-07T14:36:18.919Z,2.60
2023-03-07T14:38:47.128Z,2.53
2023-03-07T14:41:36.313Z,3.05
2023-03-07T14:44:24.371Z,2.40
2023-03-07T14:47:06.494Z,2.90
2023-03-07T14:49:39.219Z,3.00
2023-03-07T14:52:06.031Z,2.85
2023-03-07T14:54:33.940Z,2.67
2023-03-07T14:57:01.357Z,2.50
2023-03-07T14:59:29.415Z,2.75
2023-03-07T15:02:00.044Z,2.70
2023-03-07T15:04:31.564Z,3.08
2023-03-07T15:07:01.384Z,2.95
2023-03-07T15:09:28.609Z,3.20
2023-03-07T15:12:01.914Z,2.45
2023-03-07T15:14:44.420Z,2.78
2023-03-07T15:17:16.763Z,2.60
2023-03-07T15:19:55.381Z,2.75
2023-03-07T15:22:39.307Z,3.28
2023-03-07T15:25:16.852Z,2.70
2023-03-07T15:27:43.359Z,2.50
2023-03-07T15:30:23.773Z,2.45
2023-03-07T15:33:03.402Z,3.13
2023-03-07T15:35:29.857Z,3.05
2023-03-07T15:38:07.771Z,2.80
2023-03-07T15:40:36.088Z,2.85
2023-03-07T15:43:04.398Z,3.22
2023-03-07T15:45:34.108Z,2.50
2023-03-07T15:48:08.992Z,2.60
2023-03-07T15:50:35.488Z,3.70
2023-03-07T15:53:18.088Z,2.97
2023-03-07T15:55:55.765Z,2.60
2023-03-07T15:58:22.863Z,3.60
2023-03-07T16:00:49.255Z,3.20
2023-03-07T16:03:30.107Z,3.42
2023-03-07T16:05:59.028Z,3.58
2023-03-07T16:08:25.698Z,2.78
2023-03-07T16:10:57.667Z,3.22
2023-03-07T16:13:29.092Z,3.00
2023-03-07T16:16:14.247Z,2.70
2023-03-07T16:18:42.097Z,2.72
2023-03-07T16:21:13.944Z,2.70
2023-03-07T16:23:40.456Z,2.63
2023-03-07T16:26:07.671Z,2.63
2023-03-07T16:28:34.777Z,2.72
2023-03-07T16:31:01.269Z,2.72
2023-03-07T16:33:27.678Z,3.40
2023-03-07T16:35:54.097Z,3.10
2023-03-07T16:38:21.349Z,2.65
2023-03-07T16:40:47.747Z,3.38
2023-03-07T16:43:23.721Z,3.35
2023-03-07T16:45:50.143Z,3.17
2023-03-07T16:48:17.306Z,3.22
2023-03-07T16:50:43.688Z,3.00
2023-03-07T16:53:10.103Z,3.00
2023-03-07T16:55:38.162Z,3.05
2023-03-07T16:58:06.493Z,3.58
2023-03-07T17:00:32.973Z,3.40
2023-03-07T17:03:00.697Z,3.90
2023-03-07T17:05:28.855Z,4.10
2023-03-07T17:07:57.283Z,3.40
2023-03-07T17:10:26.430Z,4.28
2023-03-07T17:12:54.996Z,4.40
2023-03-07T17:15:26.106Z,2.92
2023-03-07T17:20:20.376Z,3.75
2023-03-07T17:22:46.777Z,3.40
2023-03-07T17:25:13.245Z,3.00
2023-03-07T17:27:45.325Z,3.22
2023-03-07T17:30:19.250Z,3.53
2023-03-07T17:32:47.099Z,3.20
2023-03-07T17:35:15.014Z,3.80
2023-03-07T17:37:42.328Z,3.33
2023-03-07T17:40:10.871Z,3.65
2023-03-07T17:42:37.721Z,3.50
2023-03-07T17:45:09.820Z,3.65
2023-03-07T17:47:36.961Z,3.45
2023-03-07T17:50:05.422Z,3.03
2023-03-07T17:52:32.810Z,3.42
2023-03-07T17:54:59.338Z,2.70
2023-03-07T17:57:27.216Z,2.95
2023-03-07T17:59:54.897Z,3.15
2023-03-07T18:02:21.456Z,3.13
2023-03-07T18:04:47.845Z,3.65
2023-03-07T18:07:14.236Z,3.90
2023-03-07T18:09:40.654Z,3.65
2023-03-07T18:12:07.416Z,3.67
2023-03-07T18:14:33.845Z,3.45
2023-03-07T18:17:00.235Z,3.03
2023-03-07T18:19:27.419Z,2.28
2023-03-07T18:21:55.216Z,2.80
2023-03-07T18:24:26.272Z,3.10
2023-03-07T18:26:54.851Z,2.53
2023-03-07T18:29:21.919Z,2.85
2023-03-07T18:31:48.310Z,2.35
2023-03-07T18:34:15.276Z,2.60
2023-03-07T18:36:42.434Z,2.88
2023-03-07T18:39:11.046Z,2.90
2023-03-07T18:41:37.889Z,3.13
2023-03-07T18:44:04.351Z,3.17
2023-03-07T18:46:32.201Z,2.65
2023-03-07T18:48:59.807Z,2.90
2023-03-07T18:51:26.951Z,3.08
2023-03-07T18:53:58.588Z,3.45
2023-03-07T18:56:25.959Z,3.50
2023-03-07T18:58:55.783Z,4.07
2023-03-07T19:01:31.467Z,4.13
2023-03-07T19:04:02.011Z,3.47
2023-03-07T19:06:39.330Z,4.68
2023-03-07T19:09:06.835Z,4.22
2023-03-07T19:11:33.452Z,4.90
2023-03-07T19:14:00.056Z,5.10
2023-03-07T19:16:28.168Z,5.30
2023-03-07T19:18:55.596Z,5.00
2023-03-07T19:21:24.025Z,5.30
2023-03-07T19:23:51.859Z,5.97
2023-03-07T19:26:19.509Z,5.35
2023-03-07T19:28:48.034Z,5.53
2023-03-07T19:31:17.553Z,6.18
2023-03-07T19:33:45.565Z,6.22
2023-03-07T19:36:14.457Z,5.90
2023-03-07T19:38:41.516Z,6.00
2023-03-07T19:41:12.305Z,6.22
2023-03-07T19:43:39.028Z,6.35
2023-03-07T19:46:07.582Z,7.22
2023-03-07T19:48:34.714Z,6.28
2023-03-07T19:51:01.516Z,6.65
2023-03-07T19:53:28.888Z,6.78
2023-03-07T19:55:55.717Z,6.38
2023-03-07T19:58:22.279Z,6.78
2023-03-07T20:00:48.660Z,6.55
2023-03-07T20:03:19.644Z,6.80
2023-03-07T20:05:50.740Z,7.10
2023-03-07T20:08:17.194Z,7.75
2023-03-07T20:10:44.698Z,7.10
2023-03-07T20:13:13.401Z,7.00
2023-03-07T20:15:39.872Z,7.28
2023-03-07T20:18:06.290Z,7.13
2023-03-07T20:20:35.578Z,6.93
2023-03-07T20:23:01.992Z,7.47
2023-03-07T20:25:29.706Z,8.20
2023-03-07T20:27:56.252Z,8.27
2023-03-07T20:30:23.967Z,8.27
2023-03-07T20:32:50.768Z,7.90
2023-03-07T20:35:17.287Z,8.02
2023-03-07T20:37:43.712Z,7.47
2023-03-07T20:40:10.705Z,10.80
2023-03-07T20:42:37.167Z,7.95
2023-03-07T20:45:04.105Z,7.70
2023-03-07T20:47:32.389Z,7.80
2023-03-07T20:49:58.782Z,6.90
2023-03-07T20:52:25.890Z,6.93
2023-03-07T20:54:52.315Z,6.57
2023-03-07T20:57:18.722Z,8.68
2023-03-07T20:59:45.155Z,6.70
2023-03-07T21:02:11.959Z,5.95
2023-03-07T21:04:38.888Z,6.85
2023-03-07T21:07:05.518Z,7.07
2023-03-07T21:09:32.219Z,6.30
2023-03-07T21:11:58.889Z,6.78
2023-03-07T21:14:26.927Z,6.30
2023-03-07T21:16:53.429Z,6.93
2023-03-07T21:19:22.308Z,5.72
2023-03-07T21:21:48.748Z,5.82
2023-03-07T21:24:15.817Z,5.28
2023-03-07T21:26:42.422Z,6.25
2023-03-07T21:29:10.688Z,4.85
2023-03-07T21:31:38.556Z,5.35
2023-03-07T21:34:13.512Z,5.25
2023-03-07T21:36:39.987Z,4.90
2023-03-07T21:39:08.174Z,5.35
2023-03-07T21:41:34.836Z,4.63
2023-03-07T21:44:01.716Z,4.38
2023-03-07T21:46:28.412Z,4.57
2023-03-07T21:48:54.816Z,4.18
2023-03-07T21:51:21.465Z,4.55
2023-03-07T21:53:48.025Z,4.50
2023-03-07T21:56:19.006Z,4.32
2023-03-07T21:58:49.817Z,4.22
2023-03-07T22:01:22.085Z,4.38
2023-03-07T22:03:52.210Z,4.07
2023-03-07T22:06:19.616Z,3.63
2023-03-07T22:08:46.175Z,3.63
2023-03-07T22:11:13.003Z,3.42
2023-03-07T22:13:41.153Z,3.10
2023-03-07T22:16:11.393Z,3.35
2023-03-07T22:18:38.425Z,3.17
2023-03-07T22:21:07.703Z,2.95
2023-03-07T22:23:34.344Z,2.97
2023-03-07T22:26:08.652Z,4.32
2023-03-07T22:28:35.732Z,3.25
2023-03-07T22:31:07.294Z,3.33
2023-03-07T22:33:33.870Z,3.13
2023-03-07T22:36:02.952Z,3.38
2023-03-07T22:38:30.166Z,2.95
2023-03-07T22:41:05.680Z,3.60
2023-03-07T22:43:33.012Z,3.50
2023-03-07T22:46:00.177Z,3.05
2023-03-07T22:48:27.549Z,2.90
2023-03-07T22:50:54.114Z,2.80
2023-03-07T22:53:20.676Z,3.15
2023-03-07T22:55:47.280Z,3.30
2023-03-07T22:58:14.279Z,3.40
2023-03-07T23:00:42.651Z,3.20
2023-03-07T23:03:09.921Z,2.70
2023-03-07T23:05:36.951Z,3.42
2023-03-07T23:08:04.571Z,2.63
2023-03-07T23:10:31.746Z,2.40
2023-03-07T23:12:59.304Z,2.80
2023-03-07T23:15:26.556Z,3.40
2023-03-07T23:17:53.243Z,2.60
2023-03-07T23:20:19.854Z,3.15
2023-03-07T23:22:46.716Z,2.67
2023-03-07T23:25:14.926Z,3.00
2023-03-07T23:27:41.346Z,2.55
2023-03-07T23:30:08.668Z,2.92
2023-03-07T23:32:35.182Z,2.95
2023-03-07T23:35:01.830Z,2.63
2023-03-07T23:37:28.225Z,3.60
2023-03-07T23:39:54.645Z,2.47
2023-03-07T23:42:21.364Z,2.55
2023-03-07T23:44:49.286Z,3.75
2023-03-07T23:47:16.048Z,2.70
2023-03-07T23:49:42.604Z,2.65
2023-03-07T23:52:09.006Z,2.20
2023-03-07T23:54:35.429Z,2.55
2023-03-07T23:57:01.817Z,2.95
2023-03-07T23:59:28.209Z,2.85
